sensor_id;sensor_type;location;lat;lon;timestamp;temperature;humidity
12887;DHT22;6511;49.746;6.094;2022-09-27T00:01:03;9.40;99.90
12887;DHT22;6511;49.746;6.094;2022-09-27T00:03:29;9.30;99.90
12887;DHT22;6511;49.746;6.094;2022-09-27T00:08:26;9.30;99.90
12887;DHT22;6511;49.746;6.094;2022-09-27T00:11:06;9.20;99.90
12887;DHT22;6511;49.746;6.094;2022-09-27T00:13:33;9.30;99.90
12887;DHT22;6511;49.746;6.094;2022-09-27T00:16:01;9.20;99.90
12887;DHT22;6511;49.746;6.094;2022-09-27T00:18:30;9.30;99.90
12887;DHT22;6511;49.746;6.094;2022-09-27T00:21:04;9.20;99.90
12887;DHT22;6511;49.746;6.094;2022-09-27T00:23:31;9.20;99.90
12887;DHT22;6511;49.746;6.094;2022-09-27T00:25:57;9.20;99.90
12887;DHT22;6511;49.746;6.094;2022-09-27T00:28:24;9.30;99.90
12887;DHT22;6511;49.746;6.094;2022-09-27T00:30:50;9.20;99.90
12887;DHT22;6511;49.746;6.094;2022-09-27T00:33:15;9.20;99.90
12887;DHT22;6511;49.746;6.094;2022-09-27T00:35:42;9.10;99.90
12887;DHT22;6511;49.746;6.094;2022-09-27T00:38:08;9.00;99.90
12887;DHT22;6511;49.746;6.094;2022-09-27T00:40:34;9.00;99.90
12887;DHT22;6511;49.746;6.094;2022-09-27T00:42:59;9.00;99.90
12887;DHT22;6511;49.746;6.094;2022-09-27T00:45:25;9.00;99.90
12887;DHT22;6511;49.746;6.094;2022-09-27T00:47:57;9.00;99.90
12887;DHT22;6511;49.746;6.094;2022-09-27T00:50:31;8.90;99.90
12887;DHT22;6511;49.746;6.094;2022-09-27T00:55:48;8.90;99.90
12887;DHT22;6511;49.746;6.094;2022-09-27T00:58:18;8.80;99.90
12887;DHT22;6511;49.746;6.094;2022-09-27T01:00:48;8.80;99.90
12887;DHT22;6511;49.746;6.094;2022-09-27T01:03:24;8.80;99.90
12887;DHT22;6511;49.746;6.094;2022-09-27T01:05:53;8.80;99.90
12887;DHT22;6511;49.746;6.094;2022-09-27T01:08:19;8.70;99.90
12887;DHT22;6511;49.746;6.094;2022-09-27T01:10:54;8.70;99.90
12887;DHT22;6511;49.746;6.094;2022-09-27T01:13:29;8.70;99.90
12887;DHT22;6511;49.746;6.094;2022-09-27T01:24:39;8.50;99.90
12887;DHT22;6511;49.746;6.094;2022-09-27T01:38:11;8.30;99.90
12887;DHT22;6511;49.746;6.094;2022-09-27T01:46:07;8.40;99.90
12887;DHT22;6511;49.746;6.094;2022-09-27T01:48:41;8.40;99.90
12887;DHT22;6511;49.746;6.094;2022-09-27T01:51:24;8.30;99.90
12887;DHT22;6511;49.746;6.094;2022-09-27T01:53:57;8.40;99.90
12887;DHT22;6511;49.746;6.094;2022-09-27T01:56:40;8.30;99.90
12887;DHT22;6511;49.746;6.094;2022-09-27T01:59:10;8.40;99.90
12887;DHT22;6511;49.746;6.094;2022-09-27T02:01:38;8.40;99.90
12887;DHT22;6511;49.746;6.094;2022-09-27T02:04:09;8.40;99.90
12887;DHT22;6511;49.746;6.094;2022-09-27T02:06:41;8.40;99.90
12887;DHT22;6511;49.746;6.094;2022-09-27T02:09:15;8.40;99.90
12887;DHT22;6511;49.746;6.094;2022-09-27T02:11:46;8.40;99.90
12887;DHT22;6511;49.746;6.094;2022-09-27T02:14:25;8.40;99.90
12887;DHT22;6511;49.746;6.094;2022-09-27T02:16:53;8.40;99.90
12887;DHT22;6511;49.746;6.094;2022-09-27T02:24:39;8.50;99.90
12887;DHT22;6511;49.746;6.094;2022-09-27T02:27:11;8.50;99.90
12887;DHT22;6511;49.746;6.094;2022-09-27T02:29:42;8.40;99.90
12887;DHT22;6511;49.746;6.094;2022-09-27T02:32:10;8.40;99.90
12887;DHT22;6511;49.746;6.094;2022-09-27T02:34:37;8.40;99.90
12887;DHT22;6511;49.746;6.094;2022-09-27T02:37:04;8.40;99.90
12887;DHT22;6511;49.746;6.094;2022-09-27T02:39:30;8.40;99.90
12887;DHT22;6511;49.746;6.094;2022-09-27T02:41:56;8.40;99.90
12887;DHT22;6511;49.746;6.094;2022-09-27T02:44:23;8.50;99.90
12887;DHT22;6511;49.746;6.094;2022-09-27T02:50:02;8.50;99.90
12887;DHT22;6511;49.746;6.094;2022-09-27T02:55:23;8.50;99.90
12887;DHT22;6511;49.746;6.094;2022-09-27T03:00:31;8.40;99.90
12887;DHT22;6511;49.746;6.094;2022-09-27T03:03:12;8.40;99.90
12887;DHT22;6511;49.746;6.094;2022-09-27T03:05:51;8.40;99.90
12887;DHT22;6511;49.746;6.094;2022-09-27T03:08:19;8.40;99.90
12887;DHT22;6511;49.746;6.094;2022-09-27T03:10:44;8.30;99.90
12887;DHT22;6511;49.746;6.094;2022-09-27T03:13:11;8.30;99.90
12887;DHT22;6511;49.746;6.094;2022-09-27T03:15:37;8.30;99.90
12887;DHT22;6511;49.746;6.094;2022-09-27T03:18:03;8.30;99.90
12887;DHT22;6511;49.746;6.094;2022-09-27T03:20:28;8.30;99.90
12887;DHT22;6511;49.746;6.094;2022-09-27T03:22:54;8.30;99.90
12887;DHT22;6511;49.746;6.094;2022-09-27T03:25:21;8.30;99.90
12887;DHT22;6511;49.746;6.094;2022-09-27T03:27:47;8.20;99.90
12887;DHT22;6511;49.746;6.094;2022-09-27T03:30:13;8.20;99.90
12887;DHT22;6511;49.746;6.094;2022-09-27T03:32:43;8.10;99.90
12887;DHT22;6511;49.746;6.094;2022-09-27T03:35:11;8.10;99.90
12887;DHT22;6511;49.746;6.094;2022-09-27T03:37:38;8.20;99.90
12887;DHT22;6511;49.746;6.094;2022-09-27T03:40:04;8.20;99.90
12887;DHT22;6511;49.746;6.094;2022-09-27T03:42:30;8.10;99.90
12887;DHT22;6511;49.746;6.094;2022-09-27T03:44:56;8.10;99.90
12887;DHT22;6511;49.746;6.094;2022-09-27T03:47:22;8.10;99.90
12887;DHT22;6511;49.746;6.094;2022-09-27T03:49:48;8.10;99.90
12887;DHT22;6511;49.746;6.094;2022-09-27T03:52:15;8.10;99.90
12887;DHT22;6511;49.746;6.094;2022-09-27T03:54:44;8.10;99.90
12887;DHT22;6511;49.746;6.094;2022-09-27T03:57:10;8.10;99.90
12887;DHT22;6511;49.746;6.094;2022-09-27T03:59:35;8.10;99.90
12887;DHT22;6511;49.746;6.094;2022-09-27T04:02:01;8.10;99.90
12887;DHT22;6511;49.746;6.094;2022-09-27T04:04:27;8.10;99.90
12887;DHT22;6511;49.746;6.094;2022-09-27T04:06:53;8.20;99.90
12887;DHT22;6511;49.746;6.094;2022-09-27T04:09:19;8.20;99.90
12887;DHT22;6511;49.746;6.094;2022-09-27T04:11:44;8.10;99.90
12887;DHT22;6511;49.746;6.094;2022-09-27T04:14:10;8.20;99.90
12887;DHT22;6511;49.746;6.094;2022-09-27T04:16:38;8.20;99.90
12887;DHT22;6511;49.746;6.094;2022-09-27T04:19:05;8.20;99.90
12887;DHT22;6511;49.746;6.094;2022-09-27T04:21:32;8.10;99.90
12887;DHT22;6511;49.746;6.094;2022-09-27T04:23:58;8.10;99.90
12887;DHT22;6511;49.746;6.094;2022-09-27T04:26:24;8.10;99.90
12887;DHT22;6511;49.746;6.094;2022-09-27T04:28:50;8.00;99.90
12887;DHT22;6511;49.746;6.094;2022-09-27T04:31:17;7.90;99.90
12887;DHT22;6511;49.746;6.094;2022-09-27T04:33:42;7.80;99.90
12887;DHT22;6511;49.746;6.094;2022-09-27T04:36:14;7.90;99.90
12887;DHT22;6511;49.746;6.094;2022-09-27T04:38:58;7.90;99.90
12887;DHT22;6511;49.746;6.094;2022-09-27T04:41:25;8.00;99.90
12887;DHT22;6511;49.746;6.094;2022-09-27T04:43:56;7.90;99.90
12887;DHT22;6511;49.746;6.094;2022-09-27T04:46:22;7.90;99.90
12887;DHT22;6511;49.746;6.094;2022-09-27T04:48:49;7.90;99.90
12887;DHT22;6511;49.746;6.094;2022-09-27T04:51:15;7.90;99.90
12887;DHT22;6511;49.746;6.094;2022-09-27T04:53:45;7.80;99.90
12887;DHT22;6511;49.746;6.094;2022-09-27T04:56:12;7.80;99.90
12887;DHT22;6511;49.746;6.094;2022-09-27T04:58:38;7.80;99.90
12887;DHT22;6511;49.746;6.094;2022-09-27T05:01:04;7.90;99.90
12887;DHT22;6511;49.746;6.094;2022-09-27T05:03:30;7.90;99.90
12887;DHT22;6511;49.746;6.094;2022-09-27T05:05:57;7.90;99.90
12887;DHT22;6511;49.746;6.094;2022-09-27T05:08:22;7.90;99.90
12887;DHT22;6511;49.746;6.094;2022-09-27T05:10:48;8.00;99.90
12887;DHT22;6511;49.746;6.094;2022-09-27T05:13:15;8.10;99.90
12887;DHT22;6511;49.746;6.094;2022-09-27T05:15:41;8.10;99.90
12887;DHT22;6511;49.746;6.094;2022-09-27T05:18:07;8.10;99.90
12887;DHT22;6511;49.746;6.094;2022-09-27T05:20:35;8.10;99.90
12887;DHT22;6511;49.746;6.094;2022-09-27T05:23:01;8.10;99.90
12887;DHT22;6511;49.746;6.094;2022-09-27T05:25:29;8.10;99.90
12887;DHT22;6511;49.746;6.094;2022-09-27T05:27:56;8.00;99.90
12887;DHT22;6511;49.746;6.094;2022-09-27T05:30:23;8.10;99.90
12887;DHT22;6511;49.746;6.094;2022-09-27T05:32:49;8.00;99.90
12887;DHT22;6511;49.746;6.094;2022-09-27T05:35:16;8.00;99.90
12887;DHT22;6511;49.746;6.094;2022-09-27T05:37:53;8.10;99.90
12887;DHT22;6511;49.746;6.094;2022-09-27T05:40:19;8.00;99.90
12887;DHT22;6511;49.746;6.094;2022-09-27T05:42:49;8.00;99.90
12887;DHT22;6511;49.746;6.094;2022-09-27T05:45:15;8.00;99.90
12887;DHT22;6511;49.746;6.094;2022-09-27T05:47:41;8.00;99.90
12887;DHT22;6511;49.746;6.094;2022-09-27T05:50:07;8.00;99.90
12887;DHT22;6511;49.746;6.094;2022-09-27T05:52:33;7.90;99.90
12887;DHT22;6511;49.746;6.094;2022-09-27T05:54:59;7.90;99.90
12887;DHT22;6511;49.746;6.094;2022-09-27T05:57:25;7.90;99.90
12887;DHT22;6511;49.746;6.094;2022-09-27T05:59:53;7.90;99.90
12887;DHT22;6511;49.746;6.094;2022-09-27T06:02:19;7.90;99.90
12887;DHT22;6511;49.746;6.094;2022-09-27T06:04:45;8.00;99.90
12887;DHT22;6511;49.746;6.094;2022-09-27T06:07:10;8.10;99.90
12887;DHT22;6511;49.746;6.094;2022-09-27T06:09:36;8.10;99.90
12887;DHT22;6511;49.746;6.094;2022-09-27T06:12:02;8.10;99.90
12887;DHT22;6511;49.746;6.094;2022-09-27T06:14:27;8.10;99.90
12887;DHT22;6511;49.746;6.094;2022-09-27T06:16:53;8.20;99.90
12887;DHT22;6511;49.746;6.094;2022-09-27T06:19:19;8.20;99.90
12887;DHT22;6511;49.746;6.094;2022-09-27T06:21:48;8.20;99.90
12887;DHT22;6511;49.746;6.094;2022-09-27T06:24:15;8.20;99.90
12887;DHT22;6511;49.746;6.094;2022-09-27T06:26:40;8.20;99.90
12887;DHT22;6511;49.746;6.094;2022-09-27T06:29:07;8.20;99.90
12887;DHT22;6511;49.746;6.094;2022-09-27T06:31:32;8.20;99.90
12887;DHT22;6511;49.746;6.094;2022-09-27T06:33:58;8.30;99.90
12887;DHT22;6511;49.746;6.094;2022-09-27T06:36:24;8.40;99.90
12887;DHT22;6511;49.746;6.094;2022-09-27T06:38:49;8.50;99.90
12887;DHT22;6511;49.746;6.094;2022-09-27T06:41:15;8.60;99.90
12887;DHT22;6511;49.746;6.094;2022-09-27T06:43:41;8.60;99.90
12887;DHT22;6511;49.746;6.094;2022-09-27T06:46:07;8.60;99.90
12887;DHT22;6511;49.746;6.094;2022-09-27T06:48:33;8.60;99.90
12887;DHT22;6511;49.746;6.094;2022-09-27T06:51:00;8.60;99.90
12887;DHT22;6511;49.746;6.094;2022-09-27T06:53:26;8.60;99.90
12887;DHT22;6511;49.746;6.094;2022-09-27T06:55:57;8.60;99.90
12887;DHT22;6511;49.746;6.094;2022-09-27T06:58:23;8.60;99.90
12887;DHT22;6511;49.746;6.094;2022-09-27T07:01:07;8.50;99.90
12887;DHT22;6511;49.746;6.094;2022-09-27T07:03:33;8.60;99.90
12887;DHT22;6511;49.746;6.094;2022-09-27T07:06:03;8.60;99.90
12887;DHT22;6511;49.746;6.094;2022-09-27T07:08:29;8.50;99.90
12887;DHT22;6511;49.746;6.094;2022-09-27T07:11:03;8.60;99.90
12887;DHT22;6511;49.746;6.094;2022-09-27T07:13:29;8.60;99.90
12887;DHT22;6511;49.746;6.094;2022-09-27T07:15:57;8.70;99.90
12887;DHT22;6511;49.746;6.094;2022-09-27T07:18:23;8.80;99.90
12887;DHT22;6511;49.746;6.094;2022-09-27T07:20:49;8.80;99.90
12887;DHT22;6511;49.746;6.094;2022-09-27T07:23:18;8.90;99.90
12887;DHT22;6511;49.746;6.094;2022-09-27T07:25:45;9.00;99.90
12887;DHT22;6511;49.746;6.094;2022-09-27T07:28:17;9.10;99.90
12887;DHT22;6511;49.746;6.094;2022-09-27T07:30:43;9.10;99.90
12887;DHT22;6511;49.746;6.094;2022-09-27T07:33:10;9.10;99.90
12887;DHT22;6511;49.746;6.094;2022-09-27T07:35:40;9.10;99.90
12887;DHT22;6511;49.746;6.094;2022-09-27T07:38:06;9.20;99.90
12887;DHT22;6511;49.746;6.094;2022-09-27T07:40:36;9.30;99.90
12887;DHT22;6511;49.746;6.094;2022-09-27T07:43:02;9.50;99.90
12887;DHT22;6511;49.746;6.094;2022-09-27T07:45:28;9.60;99.90
12887;DHT22;6511;49.746;6.094;2022-09-27T07:47:54;9.60;99.90
12887;DHT22;6511;49.746;6.094;2022-09-27T07:50:20;9.70;99.90
12887;DHT22;6511;49.746;6.094;2022-09-27T07:52:48;9.50;99.90
12887;DHT22;6511;49.746;6.094;2022-09-27T07:55:18;9.50;99.90
12887;DHT22;6511;49.746;6.094;2022-09-27T07:57:44;9.40;99.90
12887;DHT22;6511;49.746;6.094;2022-09-27T08:00:13;9.60;99.90
12887;DHT22;6511;49.746;6.094;2022-09-27T08:02:42;9.80;99.90
12887;DHT22;6511;49.746;6.094;2022-09-27T08:05:09;10.00;99.90
12887;DHT22;6511;49.746;6.094;2022-09-27T08:07:36;10.00;99.90
12887;DHT22;6511;49.746;6.094;2022-09-27T08:10:04;10.30;99.90
12887;DHT22;6511;49.746;6.094;2022-09-27T08:12:29;10.40;99.90
12887;DHT22;6511;49.746;6.094;2022-09-27T08:14:55;10.40;99.90
12887;DHT22;6511;49.746;6.094;2022-09-27T08:17:28;10.10;99.90
12887;DHT22;6511;49.746;6.094;2022-09-27T08:19:54;10.00;99.90
12887;DHT22;6511;49.746;6.094;2022-09-27T08:22:20;10.00;99.90
12887;DHT22;6511;49.746;6.094;2022-09-27T08:24:46;9.80;99.90
12887;DHT22;6511;49.746;6.094;2022-09-27T08:27:12;9.80;99.90
12887;DHT22;6511;49.746;6.094;2022-09-27T08:29:38;10.00;99.90
12887;DHT22;6511;49.746;6.094;2022-09-27T08:32:09;10.20;99.90
12887;DHT22;6511;49.746;6.094;2022-09-27T08:34:36;10.50;99.90
12887;DHT22;6511;49.746;6.094;2022-09-27T08:37:02;10.60;99.90
12887;DHT22;6511;49.746;6.094;2022-09-27T08:39:27;10.90;99.90
12887;DHT22;6511;49.746;6.094;2022-09-27T08:47:37;11.20;99.90
12887;DHT22;6511;49.746;6.094;2022-09-27T08:50:29;11.20;99.90
12887;DHT22;6511;49.746;6.094;2022-09-27T08:53:01;10.90;99.90
12887;DHT22;6511;49.746;6.094;2022-09-27T08:55:43;11.00;99.90
12887;DHT22;6511;49.746;6.094;2022-09-27T08:59:00;10.90;99.90
12887;DHT22;6511;49.746;6.094;2022-09-27T09:01:09;10.90;99.90
12887;DHT22;6511;49.746;6.094;2022-09-27T09:03:42;10.70;99.90
12887;DHT22;6511;49.746;6.094;2022-09-27T09:08:59;10.30;99.90
12887;DHT22;6511;49.746;6.094;2022-09-27T09:11:59;10.40;99.90
12887;DHT22;6511;49.746;6.094;2022-09-27T09:17:38;9.60;99.90
12887;DHT22;6511;49.746;6.094;2022-09-27T09:23:02;9.00;99.90
12887;DHT22;6511;49.746;6.094;2022-09-27T09:33:58;8.90;99.90
12887;DHT22;6511;49.746;6.094;2022-09-27T09:36:49;9.10;99.90
12887;DHT22;6511;49.746;6.094;2022-09-27T09:39:21;9.20;99.90
12887;DHT22;6511;49.746;6.094;2022-09-27T09:44:31;9.30;99.90
12887;DHT22;6511;49.746;6.094;2022-09-27T09:47:01;9.10;99.90
12887;DHT22;6511;49.746;6.094;2022-09-27T09:49:33;9.10;99.90
12887;DHT22;6511;49.746;6.094;2022-09-27T09:52:25;9.10;99.90
12887;DHT22;6511;49.746;6.094;2022-09-27T09:55:03;9.20;99.90
12887;DHT22;6511;49.746;6.094;2022-09-27T09:58:00;9.50;99.90
12887;DHT22;6511;49.746;6.094;2022-09-27T10:00:26;9.70;99.90
12887;DHT22;6511;49.746;6.094;2022-09-27T10:02:54;9.90;99.90
12887;DHT22;6511;49.746;6.094;2022-09-27T10:05:23;10.00;99.90
12887;DHT22;6511;49.746;6.094;2022-09-27T10:07:52;10.20;99.90
12887;DHT22;6511;49.746;6.094;2022-09-27T10:10:19;10.30;99.90
12887;DHT22;6511;49.746;6.094;2022-09-27T10:12:46;10.50;99.90
12887;DHT22;6511;49.746;6.094;2022-09-27T10:15:21;10.40;99.90
12887;DHT22;6511;49.746;6.094;2022-09-27T10:17:50;10.50;99.90
12887;DHT22;6511;49.746;6.094;2022-09-27T10:22:53;10.70;99.90
12887;DHT22;6511;49.746;6.094;2022-09-27T10:25:20;11.00;99.90
12887;DHT22;6511;49.746;6.094;2022-09-27T10:27:48;11.10;99.90
12887;DHT22;6511;49.746;6.094;2022-09-27T10:30:22;11.00;99.90
12887;DHT22;6511;49.746;6.094;2022-09-27T10:32:52;10.90;99.90
12887;DHT22;6511;49.746;6.094;2022-09-27T10:38:24;10.90;99.90
12887;DHT22;6511;49.746;6.094;2022-09-27T10:40:55;10.90;99.90
12887;DHT22;6511;49.746;6.094;2022-09-27T10:46:15;11.30;99.90
12887;DHT22;6511;49.746;6.094;2022-09-27T10:48:44;11.20;99.90
12887;DHT22;6511;49.746;6.094;2022-09-27T10:51:39;11.20;99.90
12887;DHT22;6511;49.746;6.094;2022-09-27T10:54:14;11.30;99.90
12887;DHT22;6511;49.746;6.094;2022-09-27T10:56:41;11.40;99.90
12887;DHT22;6511;49.746;6.094;2022-09-27T10:59:17;11.40;99.90
12887;DHT22;6511;49.746;6.094;2022-09-27T11:01:45;11.50;99.90
12887;DHT22;6511;49.746;6.094;2022-09-27T11:04:27;11.50;99.90
12887;DHT22;6511;49.746;6.094;2022-09-27T11:07:06;11.60;99.90
12887;DHT22;6511;49.746;6.094;2022-09-27T11:09:54;11.70;99.90
12887;DHT22;6511;49.746;6.094;2022-09-27T11:12:21;11.80;99.90
12887;DHT22;6511;49.746;6.094;2022-09-27T11:15:03;11.70;99.90
12887;DHT22;6511;49.746;6.094;2022-09-27T11:17:55;11.60;99.90
12887;DHT22;6511;49.746;6.094;2022-09-27T11:21:01;11.40;99.90
12887;DHT22;6511;49.746;6.094;2022-09-27T11:48:25;11.80;99.90
12887;DHT22;6511;49.746;6.094;2022-09-27T12:04:56;11.00;99.90
12887;DHT22;6511;49.746;6.094;2022-09-27T12:10:15;11.20;99.90
12887;DHT22;6511;49.746;6.094;2022-09-27T12:12:45;11.40;99.90
12887;DHT22;6511;49.746;6.094;2022-09-27T12:15:20;11.30;99.90
12887;DHT22;6511;49.746;6.094;2022-09-27T12:17:50;11.20;99.90
12887;DHT22;6511;49.746;6.094;2022-09-27T12:20:36;11.40;99.90
12887;DHT22;6511;49.746;6.094;2022-09-27T12:23:18;11.10;99.90
12887;DHT22;6511;49.746;6.094;2022-09-27T12:25:48;11.20;99.90
12887;DHT22;6511;49.746;6.094;2022-09-27T12:31:41;11.50;99.90
12887;DHT22;6511;49.746;6.094;2022-09-27T12:34:20;11.50;99.90
12887;DHT22;6511;49.746;6.094;2022-09-27T12:36:52;11.40;99.90
12887;DHT22;6511;49.746;6.094;2022-09-27T12:42:20;11.60;99.90
12887;DHT22;6511;49.746;6.094;2022-09-27T12:44:47;11.90;99.90
12887;DHT22;6511;49.746;6.094;2022-09-27T12:52:42;11.70;99.90
12887;DHT22;6511;49.746;6.094;2022-09-27T13:00:55;12.00;99.90
12887;DHT22;6511;49.746;6.094;2022-09-27T13:09:00;11.70;99.90
12887;DHT22;6511;49.746;6.094;2022-09-27T13:14:19;11.30;99.90
12887;DHT22;6511;49.746;6.094;2022-09-27T13:16:47;11.20;99.90
12887;DHT22;6511;49.746;6.094;2022-09-27T13:19:39;11.20;99.90
12887;DHT22;6511;49.746;6.094;2022-09-27T13:24:53;11.10;99.90
12887;DHT22;6511;49.746;6.094;2022-09-27T13:29:49;10.80;99.90
12887;DHT22;6511;49.746;6.094;2022-09-27T13:32:20;10.80;99.90
12887;DHT22;6511;49.746;6.094;2022-09-27T13:34:55;10.80;99.90
12887;DHT22;6511;49.746;6.094;2022-09-27T13:37:47;11.10;99.90
12887;DHT22;6511;49.746;6.094;2022-09-27T13:45:41;11.00;99.90
12887;DHT22;6511;49.746;6.094;2022-09-27T13:48:58;10.80;99.90
12887;DHT22;6511;49.746;6.094;2022-09-27T13:51:19;10.90;99.90
12887;DHT22;6511;49.746;6.094;2022-09-27T13:54:01;11.00;99.90
12887;DHT22;6511;49.746;6.094;2022-09-27T13:59:28;11.00;99.90
12887;DHT22;6511;49.746;6.094;2022-09-27T14:02:12;10.90;99.90
12887;DHT22;6511;49.746;6.094;2022-09-27T14:04:46;10.80;99.90
12887;DHT22;6511;49.746;6.094;2022-09-27T14:07:20;10.70;99.90
12887;DHT22;6511;49.746;6.094;2022-09-27T14:09:51;10.60;99.90
12887;DHT22;6511;49.746;6.094;2022-09-27T14:12:28;10.50;99.90
12887;DHT22;6511;49.746;6.094;2022-09-27T14:14:56;10.90;99.90
12887;DHT22;6511;49.746;6.094;2022-09-27T14:17:23;10.80;99.90
12887;DHT22;6511;49.746;6.094;2022-09-27T14:19:50;11.00;99.90
12887;DHT22;6511;49.746;6.094;2022-09-27T14:22:20;11.10;99.90
12887;DHT22;6511;49.746;6.094;2022-09-27T14:24:51;10.90;99.90
12887;DHT22;6511;49.746;6.094;2022-09-27T14:27:21;10.90;99.90
12887;DHT22;6511;49.746;6.094;2022-09-27T14:32:24;10.90;99.90
12887;DHT22;6511;49.746;6.094;2022-09-27T14:38:01;10.90;99.90
12887;DHT22;6511;49.746;6.094;2022-09-27T14:40:28;10.90;99.90
12887;DHT22;6511;49.746;6.094;2022-09-27T14:42:55;11.10;99.90
12887;DHT22;6511;49.746;6.094;2022-09-27T14:45:42;10.90;99.90
12887;DHT22;6511;49.746;6.094;2022-09-27T14:53:34;10.90;99.90
12887;DHT22;6511;49.746;6.094;2022-09-27T14:56:01;10.90;99.90
12887;DHT22;6511;49.746;6.094;2022-09-27T14:58:27;11.00;99.90
12887;DHT22;6511;49.746;6.094;2022-09-27T15:00:55;11.10;99.90
12887;DHT22;6511;49.746;6.094;2022-09-27T15:03:29;11.00;99.90
12887;DHT22;6511;49.746;6.094;2022-09-27T15:05:57;11.00;99.90
12887;DHT22;6511;49.746;6.094;2022-09-27T15:08:26;11.00;99.90
12887;DHT22;6511;49.746;6.094;2022-09-27T15:10:55;10.90;99.90
12887;DHT22;6511;49.746;6.094;2022-09-27T15:13:22;10.80;99.90
12887;DHT22;6511;49.746;6.094;2022-09-27T15:15:49;10.70;99.90
12887;DHT22;6511;49.746;6.094;2022-09-27T15:18:42;10.70;99.90
12887;DHT22;6511;49.746;6.094;2022-09-27T15:21:12;10.60;99.90
12887;DHT22;6511;49.746;6.094;2022-09-27T15:23:40;10.60;99.90
12887;DHT22;6511;49.746;6.094;2022-09-27T15:26:23;10.60;99.90
12887;DHT22;6511;49.746;6.094;2022-09-27T15:28:51;10.70;99.90
12887;DHT22;6511;49.746;6.094;2022-09-27T15:31:28;10.70;99.90
12887;DHT22;6511;49.746;6.094;2022-09-27T15:33:55;10.60;99.90
12887;DHT22;6511;49.746;6.094;2022-09-27T15:39:20;10.50;99.90
12887;DHT22;6511;49.746;6.094;2022-09-27T15:47:03;10.50;99.90
12887;DHT22;6511;49.746;6.094;2022-09-27T15:49:30;10.60;99.90
12887;DHT22;6511;49.746;6.094;2022-09-27T15:51:59;10.60;99.90
12887;DHT22;6511;49.746;6.094;2022-09-27T15:54:29;10.60;99.90
12887;DHT22;6511;49.746;6.094;2022-09-27T15:57:01;10.70;99.90
12887;DHT22;6511;49.746;6.094;2022-09-27T15:59:31;10.80;99.90
12887;DHT22;6511;49.746;6.094;2022-09-27T16:02:00;10.80;99.90
12887;DHT22;6511;49.746;6.094;2022-09-27T16:04:27;10.80;99.90
12887;DHT22;6511;49.746;6.094;2022-09-27T16:06:57;10.80;99.90
12887;DHT22;6511;49.746;6.094;2022-09-27T16:09:25;10.90;99.90
12887;DHT22;6511;49.746;6.094;2022-09-27T16:11:51;11.00;99.90
12887;DHT22;6511;49.746;6.094;2022-09-27T16:14:17;11.00;99.90
12887;DHT22;6511;49.746;6.094;2022-09-27T16:16:52;11.00;99.90
12887;DHT22;6511;49.746;6.094;2022-09-27T16:19:19;10.90;99.90
12887;DHT22;6511;49.746;6.094;2022-09-27T16:21:47;10.90;99.90
12887;DHT22;6511;49.746;6.094;2022-09-27T16:24:13;10.80;99.90
12887;DHT22;6511;49.746;6.094;2022-09-27T16:26:43;10.80;99.90
12887;DHT22;6511;49.746;6.094;2022-09-27T16:29:14;10.70;99.90
12887;DHT22;6511;49.746;6.094;2022-09-27T16:31:41;10.60;99.90
12887;DHT22;6511;49.746;6.094;2022-09-27T16:34:09;10.50;99.90
12887;DHT22;6511;49.746;6.094;2022-09-27T16:36:35;10.50;99.90
12887;DHT22;6511;49.746;6.094;2022-09-27T16:39:01;10.50;99.90
12887;DHT22;6511;49.746;6.094;2022-09-27T16:41:29;10.50;99.90
12887;DHT22;6511;49.746;6.094;2022-09-27T16:43:55;10.50;99.90
12887;DHT22;6511;49.746;6.094;2022-09-27T16:46:23;10.40;99.90
12887;DHT22;6511;49.746;6.094;2022-09-27T16:48:49;10.40;99.90
12887;DHT22;6511;49.746;6.094;2022-09-27T16:51:20;10.50;99.90
12887;DHT22;6511;49.746;6.094;2022-09-27T16:54:06;10.40;99.90
12887;DHT22;6511;49.746;6.094;2022-09-27T16:56:35;10.30;99.90
12887;DHT22;6511;49.746;6.094;2022-09-27T16:59:02;10.20;99.90
12887;DHT22;6511;49.746;6.094;2022-09-27T17:01:32;10.20;99.90
12887;DHT22;6511;49.746;6.094;2022-09-27T17:03:58;10.10;99.90
12887;DHT22;6511;49.746;6.094;2022-09-27T17:06:26;10.10;99.90
12887;DHT22;6511;49.746;6.094;2022-09-27T17:08:56;10.10;99.90
12887;DHT22;6511;49.746;6.094;2022-09-27T17:11:24;10.00;99.90
12887;DHT22;6511;49.746;6.094;2022-09-27T17:13:54;10.00;99.90
12887;DHT22;6511;49.746;6.094;2022-09-27T17:16:21;10.00;99.90
12887;DHT22;6511;49.746;6.094;2022-09-27T17:18:46;10.00;99.90
12887;DHT22;6511;49.746;6.094;2022-09-27T17:21:12;10.00;99.90
12887;DHT22;6511;49.746;6.094;2022-09-27T17:23:38;9.90;99.90
12887;DHT22;6511;49.746;6.094;2022-09-27T17:26:18;9.90;99.90
12887;DHT22;6511;49.746;6.094;2022-09-27T17:28:45;9.90;99.90
12887;DHT22;6511;49.746;6.094;2022-09-27T17:31:13;9.90;99.90
12887;DHT22;6511;49.746;6.094;2022-09-27T17:33:50;9.90;99.90
12887;DHT22;6511;49.746;6.094;2022-09-27T17:36:25;9.80;99.90
12887;DHT22;6511;49.746;6.094;2022-09-27T17:38:51;9.80;99.90
12887;DHT22;6511;49.746;6.094;2022-09-27T17:41:32;9.80;99.90
12887;DHT22;6511;49.746;6.094;2022-09-27T17:44:00;9.70;99.90
12887;DHT22;6511;49.746;6.094;2022-09-27T17:46:31;9.60;99.90
12887;DHT22;6511;49.746;6.094;2022-09-27T17:48:57;9.60;99.90
12887;DHT22;6511;49.746;6.094;2022-09-27T17:51:45;9.60;99.90
12887;DHT22;6511;49.746;6.094;2022-09-27T17:54:12;9.40;99.90
12887;DHT22;6511;49.746;6.094;2022-09-27T17:56:41;9.40;99.90
12887;DHT22;6511;49.746;6.094;2022-09-27T17:59:08;9.30;99.90
12887;DHT22;6511;49.746;6.094;2022-09-27T18:01:36;9.20;99.90
12887;DHT22;6511;49.746;6.094;2022-09-27T18:04:06;9.10;99.90
12887;DHT22;6511;49.746;6.094;2022-09-27T18:06:40;8.90;99.90
12887;DHT22;6511;49.746;6.094;2022-09-27T18:09:07;8.80;99.90
12887;DHT22;6511;49.746;6.094;2022-09-27T18:11:34;8.80;99.90
12887;DHT22;6511;49.746;6.094;2022-09-27T18:14:00;8.70;99.90
12887;DHT22;6511;49.746;6.094;2022-09-27T18:16:27;8.70;99.90
12887;DHT22;6511;49.746;6.094;2022-09-27T18:19:00;8.70;99.90
12887;DHT22;6511;49.746;6.094;2022-09-27T18:21:28;8.70;99.90
12887;DHT22;6511;49.746;6.094;2022-09-27T18:23:56;8.70;99.90
12887;DHT22;6511;49.746;6.094;2022-09-27T18:26:23;8.70;99.90
12887;DHT22;6511;49.746;6.094;2022-09-27T18:28:50;8.70;99.90
12887;DHT22;6511;49.746;6.094;2022-09-27T18:31:18;8.70;99.90
12887;DHT22;6511;49.746;6.094;2022-09-27T18:33:44;8.70;99.90
12887;DHT22;6511;49.746;6.094;2022-09-27T18:36:17;8.70;99.90
12887;DHT22;6511;49.746;6.094;2022-09-27T18:38:44;8.70;99.90
12887;DHT22;6511;49.746;6.094;2022-09-27T18:41:13;8.70;99.90
12887;DHT22;6511;49.746;6.094;2022-09-27T18:43:39;8.60;99.90
12887;DHT22;6511;49.746;6.094;2022-09-27T18:46:08;8.70;99.90
12887;DHT22;6511;49.746;6.094;2022-09-27T18:48:36;8.70;99.90
12887;DHT22;6511;49.746;6.094;2022-09-27T18:51:07;8.70;99.90
12887;DHT22;6511;49.746;6.094;2022-09-27T18:53:34;8.70;99.90
12887;DHT22;6511;49.746;6.094;2022-09-27T18:56:08;8.70;99.90
12887;DHT22;6511;49.746;6.094;2022-09-27T18:58:35;8.80;99.90
12887;DHT22;6511;49.746;6.094;2022-09-27T19:01:03;8.70;99.90
12887;DHT22;6511;49.746;6.094;2022-09-27T19:03:30;8.70;99.90
12887;DHT22;6511;49.746;6.094;2022-09-27T19:06:07;8.70;99.90
12887;DHT22;6511;49.746;6.094;2022-09-27T19:08:34;8.70;99.90
12887;DHT22;6511;49.746;6.094;2022-09-27T19:11:20;8.70;99.90